sensor_id;sensor_type;location;lat;lon;timestamp;P1;durP1;ratioP1;P2;durP2;ratioP2
1010;SDS011;494;48.744;10.106;2023-05-10T00:00:15;11.87;;;8.30;;
1010;SDS011;494;48.744;10.106;2023-05-10T00:02:45;12.23;;;9.00;;
1010;SDS011;494;48.744;10.106;2023-05-10T00:05:13;14.30;;;8.83;;
1010;SDS011;494;48.744;10.106;2023-05-10T00:07:42;13.80;;;8.33;;
1010;SDS011;494;48.744;10.106;2023-05-10T00:10:12;12.53;;;9.87;;
1010;SDS011;494;48.744;10.106;2023-05-10T00:12:42;11.70;;;8.80;;
1010;SDS011;494;48.744;10.106;2023-05-10T00:15:11;10.93;;;8.83;;
1010;SDS011;494;48.744;10.106;2023-05-10T00:17:41;12.23;;;9.90;;
1010;SDS011;494;48.744;10.106;2023-05-10T00:20:10;11.50;;;9.70;;
1010;SDS011;494;48.744;10.106;2023-05-10T00:22:40;14.90;;;9.83;;
1010;SDS011;494;48.744;10.106;2023-05-10T00:25:08;12.33;;;9.70;;
1010;SDS011;494;48.744;10.106;2023-05-10T00:27:38;12.53;;;10.00;;
1010;SDS011;494;48.744;10.106;2023-05-10T00:30:09;16.40;;;10.53;;
1010;SDS011;494;48.744;10.106;2023-05-10T00:32:38;12.83;;;10.60;;
1010;SDS011;494;48.744;10.106;2023-05-10T00:35:08;13.43;;;11.37;;
1010;SDS011;494;48.744;10.106;2023-05-10T00:37:36;14.87;;;11.23;;
1010;SDS011;494;48.744;10.106;2023-05-10T00:40:06;12.80;;;10.90;;
1010;SDS011;494;48.744;10.106;2023-05-10T00:42:35;13.73;;;11.13;;
1010;SDS011;494;48.744;10.106;2023-05-10T00:45:04;14.80;;;10.87;;
1010;SDS011;494;48.744;10.106;2023-05-10T00:47:37;14.50;;;11.60;;
1010;SDS011;494;48.744;10.106;2023-05-10T00:50:07;12.70;;;10.23;;
1010;SDS011;494;48.744;10.106;2023-05-10T00:52:37;11.93;;;9.80;;
1010;SDS011;494;48.744;10.106;2023-05-10T00:55:07;13.87;;;9.60;;
1010;SDS011;494;48.744;10.106;2023-05-10T00:57:37;14.23;;;9.27;;
1010;SDS011;494;48.744;10.106;2023-05-10T01:00:10;12.00;;;8.70;;
1010;SDS011;494;48.744;10.106;2023-05-10T01:02:44;10.00;;;6.50;;
1010;SDS011;494;48.744;10.106;2023-05-10T01:05:13;12.63;;;8.83;;
1010;SDS011;494;48.744;10.106;2023-05-10T01:07:43;9.23;;;5.20;;
1010;SDS011;494;48.744;10.106;2023-05-10T01:10:11;8.13;;;4.10;;
1010;SDS011;494;48.744;10.106;2023-05-10T01:12:41;9.13;;;4.40;;
1010;SDS011;494;48.744;10.106;2023-05-10T01:15:15;10.10;;;4.17;;
1010;SDS011;494;48.744;10.106;2023-05-10T01:17:46;8.10;;;4.10;;
1010;SDS011;494;48.744;10.106;2023-05-10T01:20:16;8.27;;;3.50;;
1010;SDS011;494;48.744;10.106;2023-05-10T01:23:04;8.90;;;3.63;;
1010;SDS011;494;48.744;10.106;2023-05-10T01:26:07;7.30;;;2.90;;
1010;SDS011;494;48.744;10.106;2023-05-10T01:29:11;7.43;;;3.13;;
1010;SDS011;494;48.744;10.106;2023-05-10T01:32:02;7.10;;;2.43;;
1010;SDS011;494;48.744;10.106;2023-05-10T01:34:52;9.33;;;5.90;;
1010;SDS011;494;48.744;10.106;2023-05-10T01:37:33;8.47;;;4.47;;
1010;SDS011;494;48.744;10.106;2023-05-10T01:40:12;7.87;;;3.80;;
1010;SDS011;494;48.744;10.106;2023-05-10T01:42:48;8.70;;;5.70;;
1010;SDS011;494;48.744;10.106;2023-05-10T01:45:26;7.50;;;3.80;;
1010;SDS011;494;48.744;10.106;2023-05-10T01:48:07;17.87;;;16.20;;
1010;SDS011;494;48.744;10.106;2023-05-10T01:50:39;11.37;;;10.17;;
1010;SDS011;494;48.744;10.106;2023-05-10T01:53:12;7.87;;;1.07;;
1010;SDS011;494;48.744;10.106;2023-05-10T01:55:47;7.93;;;1.57;;
1010;SDS011;494;48.744;10.106;2023-05-10T01:58:21;11.83;;;0.90;;
1010;SDS011;494;48.744;10.106;2023-05-10T02:00:58;9.03;;;2.20;;
1010;SDS011;494;48.744;10.106;2023-05-10T02:03:33;7.40;;;2.90;;
1010;SDS011;494;48.744;10.106;2023-05-10T02:06:06;9.60;;;7.80;;
1010;SDS011;494;48.744;10.106;2023-05-10T02:08:38;10.60;;;8.60;;
1010;SDS011;494;48.744;10.106;2023-05-10T02:11:09;8.20;;;5.70;;
1010;SDS011;494;48.744;10.106;2023-05-10T02:13:41;8.67;;;5.50;;
1010;SDS011;494;48.744;10.106;2023-05-10T02:16:13;10.00;;;8.93;;
1010;SDS011;494;48.744;10.106;2023-05-10T02:18:46;11.30;;;8.57;;
1010;SDS011;494;48.744;10.106;2023-05-10T02:21:16;11.17;;;9.97;;
1010;SDS011;494;48.744;10.106;2023-05-10T02:23:48;11.03;;;9.93;;
1010;SDS011;494;48.744;10.106;2023-05-10T02:26:20;9.10;;;6.70;;
1010;SDS011;494;48.744;10.106;2023-05-10T02:28:52;11.50;;;10.30;;
1010;SDS011;494;48.744;10.106;2023-05-10T02:31:24;7.40;;;4.77;;
1010;SDS011;494;48.744;10.106;2023-05-10T02:33:55;7.33;;;4.30;;
1010;SDS011;494;48.744;10.106;2023-05-10T02:36:26;7.20;;;4.20;;
1010;SDS011;494;48.744;10.106;2023-05-10T02:38:56;10.30;;;3.80;;
1010;SDS011;494;48.744;10.106;2023-05-10T02:41:26;7.90;;;5.47;;
1010;SDS011;494;48.744;10.106;2023-05-10T02:43:59;6.07;;;1.10;;
1010;SDS011;494;48.744;10.106;2023-05-10T02:46:30;8.30;;;1.20;;
1010;SDS011;494;48.744;10.106;2023-05-10T02:49:01;7.13;;;1.43;;
1010;SDS011;494;48.744;10.106;2023-05-10T02:51:30;6.90;;;1.20;;
1010;SDS011;494;48.744;10.106;2023-05-10T02:54:04;9.30;;;1.23;;
1010;SDS011;494;48.744;10.106;2023-05-10T02:56:40;6.37;;;1.20;;
1010;SDS011;494;48.744;10.106;2023-05-10T02:59:15;6.43;;;1.40;;
1010;SDS011;494;48.744;10.106;2023-05-10T03:01:44;9.13;;;1.70;;
1010;SDS011;494;48.744;10.106;2023-05-10T03:04:14;7.50;;;2.00;;
1010;SDS011;494;48.744;10.106;2023-05-10T03:06:43;8.23;;;2.47;;
1010;SDS011;494;48.744;10.106;2023-05-10T03:09:12;7.60;;;1.90;;
1010;SDS011;494;48.744;10.106;2023-05-10T03:11:47;9.30;;;2.40;;
1010;SDS011;494;48.744;10.106;2023-05-10T03:14:30;7.57;;;2.17;;
1010;SDS011;494;48.744;10.106;2023-05-10T03:17:15;9.60;;;2.00;;
1010;SDS011;494;48.744;10.106;2023-05-10T03:19:53;9.23;;;2.10;;
1010;SDS011;494;48.744;10.106;2023-05-10T03:22:25;7.90;;;2.30;;
1010;SDS011;494;48.744;10.106;2023-05-10T03:24:58;8.50;;;2.40;;
1010;SDS011;494;48.744;10.106;2023-05-10T03:27:32;6.90;;;1.90;;
1010;SDS011;494;48.744;10.106;2023-05-10T03:30:05;8.63;;;2.40;;
1010;SDS011;494;48.744;10.106;2023-05-10T03:32:36;8.93;;;2.37;;
1010;SDS011;494;48.744;10.106;2023-05-10T03:35:08;7.40;;;2.10;;
1010;SDS011;494;48.744;10.106;2023-05-10T03:37:38;7.20;;;1.93;;
1010;SDS011;494;48.744;10.106;2023-05-10T03:40:07;7.33;;;1.90;;
1010;SDS011;494;48.744;10.106;2023-05-10T03:42:38;6.97;;;2.00;;
1010;SDS011;494;48.744;10.106;2023-05-10T03:45:07;8.87;;;3.17;;
1010;SDS011;494;48.744;10.106;2023-05-10T03:47:37;10.03;;;3.83;;
1010;SDS011;494;48.744;10.106;2023-05-10T03:50:07;8.50;;;2.77;;
1010;SDS011;494;48.744;10.106;2023-05-10T03:52:36;11.10;;;2.43;;
1010;SDS011;494;48.744;10.106;2023-05-10T03:55:07;7.90;;;2.80;;
1010;SDS011;494;48.744;10.106;2023-05-10T03:57:36;9.90;;;3.40;;
1010;SDS011;494;48.744;10.106;2023-05-10T04:00:05;9.60;;;3.17;;
1010;SDS011;494;48.744;10.106;2023-05-10T04:02:34;9.20;;;2.80;;
1010;SDS011;494;48.744;10.106;2023-05-10T04:05:05;8.63;;;3.00;;
1010;SDS011;494;48.744;10.106;2023-05-10T04:07:36;8.17;;;2.90;;
1010;SDS011;494;48.744;10.106;2023-05-10T04:10:05;9.73;;;3.60;;
1010;SDS011;494;48.744;10.106;2023-05-10T04:12:35;10.83;;;3.17;;
1010;SDS011;494;48.744;10.106;2023-05-10T04:15:04;9.73;;;3.27;;
1010;SDS011;494;48.744;10.106;2023-05-10T04:17:34;7.73;;;2.93;;
1010;SDS011;494;48.744;10.106;2023-05-10T04:20:03;8.43;;;3.30;;
1010;SDS011;494;48.744;10.106;2023-05-10T04:22:35;8.80;;;3.60;;
1010;SDS011;494;48.744;10.106;2023-05-10T04:25:04;10.00;;;3.87;;
1010;SDS011;494;48.744;10.106;2023-05-10T04:27:34;9.90;;;4.20;;
1010;SDS011;494;48.744;10.106;2023-05-10T04:30:03;11.40;;;4.93;;
1010;SDS011;494;48.744;10.106;2023-05-10T04:32:34;11.57;;;4.30;;
1010;SDS011;494;48.744;10.106;2023-05-10T04:35:03;13.43;;;3.83;;
1010;SDS011;494;48.744;10.106;2023-05-10T04:37:32;9.60;;;3.90;;
1010;SDS011;494;48.744;10.106;2023-05-10T04:40:03;9.20;;;3.40;;
1010;SDS011;494;48.744;10.106;2023-05-10T04:42:33;9.00;;;3.00;;
1010;SDS011;494;48.744;10.106;2023-05-10T04:45:02;9.03;;;3.60;;
1010;SDS011;494;48.744;10.106;2023-05-10T04:47:31;9.63;;;4.53;;
1010;SDS011;494;48.744;10.106;2023-05-10T04:50:00;12.00;;;3.90;;
1010;SDS011;494;48.744;10.106;2023-05-10T04:52:29;10.50;;;3.83;;
1010;SDS011;494;48.744;10.106;2023-05-10T04:54:59;8.20;;;2.97;;
1010;SDS011;494;48.744;10.106;2023-05-10T04:57:27;8.80;;;3.30;;
1010;SDS011;494;48.744;10.106;2023-05-10T04:59:56;11.50;;;3.17;;
1010;SDS011;494;48.744;10.106;2023-05-10T05:02:25;8.53;;;3.10;;
1010;SDS011;494;48.744;10.106;2023-05-10T05:04:55;15.53;;;4.53;;
1010;SDS011;494;48.744;10.106;2023-05-10T05:07:25;9.83;;;3.80;;
1010;SDS011;494;48.744;10.106;2023-05-10T05:09:55;9.27;;;3.30;;
1010;SDS011;494;48.744;10.106;2023-05-10T05:12:25;9.97;;;3.60;;
1010;SDS011;494;48.744;10.106;2023-05-10T05:14:54;9.43;;;4.00;;
1010;SDS011;494;48.744;10.106;2023-05-10T05:17:24;8.53;;;3.37;;
1010;SDS011;494;48.744;10.106;2023-05-10T05:19:53;10.50;;;3.60;;
1010;SDS011;494;48.744;10.106;2023-05-10T05:22:23;9.40;;;4.33;;
1010;SDS011;494;48.744;10.106;2023-05-10T05:24:56;9.00;;;3.60;;
1010;SDS011;494;48.744;10.106;2023-05-10T05:27:27;10.07;;;3.30;;
1010;SDS011;494;48.744;10.106;2023-05-10T05:29:57;10.30;;;3.30;;
1010;SDS011;494;48.744;10.106;2023-05-10T05:32:25;8.80;;;3.40;;
1010;SDS011;494;48.744;10.106;2023-05-10T05:34:54;8.40;;;3.40;;
1010;SDS011;494;48.744;10.106;2023-05-10T05:37:23;11.47;;;3.13;;
1010;SDS011;494;48.744;10.106;2023-05-10T05:39:52;10.17;;;4.60;;
1010;SDS011;494;48.744;10.106;2023-05-10T05:42:21;9.90;;;3.30;;
1010;SDS011;494;48.744;10.106;2023-05-10T05:44:51;8.70;;;3.60;;
1010;SDS011;494;48.744;10.106;2023-05-10T05:47:20;8.23;;;4.50;;
1010;SDS011;494;48.744;10.106;2023-05-10T05:49:49;10.20;;;5.20;;
1010;SDS011;494;48.744;10.106;2023-05-10T05:52:18;20.43;;;5.57;;
1010;SDS011;494;48.744;10.106;2023-05-10T05:54:48;12.77;;;5.20;;
1010;SDS011;494;48.744;10.106;2023-05-10T05:57:17;9.13;;;5.53;;
1010;SDS011;494;48.744;10.106;2023-05-10T05:59:46;10.73;;;5.43;;
1010;SDS011;494;48.744;10.106;2023-05-10T06:02:16;10.17;;;5.13;;
1010;SDS011;494;48.744;10.106;2023-05-10T06:04:45;9.80;;;6.10;;
1010;SDS011;494;48.744;10.106;2023-05-10T06:07:14;10.13;;;7.90;;
1010;SDS011;494;48.744;10.106;2023-05-10T06:09:43;11.27;;;9.33;;
1010;SDS011;494;48.744;10.106;2023-05-10T06:12:12;11.20;;;10.00;;
1010;SDS011;494;48.744;10.106;2023-05-10T06:14:40;12.70;;;9.57;;
1010;SDS011;494;48.744;10.106;2023-05-10T06:17:09;11.17;;;9.97;;
1010;SDS011;494;48.744;10.106;2023-05-10T06:19:41;14.50;;;10.10;;
1010;SDS011;494;48.744;10.106;2023-05-10T06:22:10;14.30;;;9.80;;
1010;SDS011;494;48.744;10.106;2023-05-10T06:24:38;11.17;;;9.20;;
1010;SDS011;494;48.744;10.106;2023-05-10T06:27:09;10.53;;;8.43;;
1010;SDS011;494;48.744;10.106;2023-05-10T06:29:38;10.47;;;9.23;;
1010;SDS011;494;48.744;10.106;2023-05-10T06:32:27;11.47;;;9.40;;
1010;SDS011;494;48.744;10.106;2023-05-10T06:34:59;10.67;;;9.00;;
1010;SDS011;494;48.744;10.106;2023-05-10T06:37:30;10.27;;;8.40;;
1010;SDS011;494;48.744;10.106;2023-05-10T06:40:16;11.70;;;8.83;;
1010;SDS011;494;48.744;10.106;2023-05-10T06:42:50;11.67;;;9.17;;
1010;SDS011;494;48.744;10.106;2023-05-10T06:45:20;11.60;;;10.40;;
1010;SDS011;494;48.744;10.106;2023-05-10T06:47:49;13.80;;;11.57;;
1010;SDS011;494;48.744;10.106;2023-05-10T06:50:20;12.90;;;11.30;;
1010;SDS011;494;48.744;10.106;2023-05-10T06:52:48;10.87;;;9.70;;
1010;SDS011;494;48.744;10.106;2023-05-10T06:55:18;12.73;;;10.07;;
1010;SDS011;494;48.744;10.106;2023-05-10T06:57:47;13.70;;;9.60;;
1010;SDS011;494;48.744;10.106;2023-05-10T07:00:17;12.93;;;10.23;;
1010;SDS011;494;48.744;10.106;2023-05-10T07:02:47;11.50;;;9.57;;
1010;SDS011;494;48.744;10.106;2023-05-10T07:05:16;12.60;;;9.80;;
1010;SDS011;494;48.744;10.106;2023-05-10T07:07:46;11.27;;;9.37;;
1010;SDS011;494;48.744;10.106;2023-05-10T07:10:15;11.93;;;8.93;;
1010;SDS011;494;48.744;10.106;2023-05-10T07:12:44;10.60;;;7.50;;
1010;SDS011;494;48.744;10.106;2023-05-10T07:15:12;10.20;;;6.30;;
1010;SDS011;494;48.744;10.106;2023-05-10T07:17:43;14.63;;;6.93;;
1010;SDS011;494;48.744;10.106;2023-05-10T07:20:12;9.93;;;6.13;;
1010;SDS011;494;48.744;10.106;2023-05-10T07:22:41;12.23;;;7.07;;
1010;SDS011;494;48.744;10.106;2023-05-10T07:25:11;13.37;;;10.60;;
1010;SDS011;494;48.744;10.106;2023-05-10T07:27:40;11.60;;;9.87;;
1010;SDS011;494;48.744;10.106;2023-05-10T07:30:09;11.90;;;9.60;;
1010;SDS011;494;48.744;10.106;2023-05-10T07:32:38;10.70;;;9.00;;
1010;SDS011;494;48.744;10.106;2023-05-10T07:35:08;9.10;;;5.20;;
1010;SDS011;494;48.744;10.106;2023-05-10T07:37:37;13.80;;;5.90;;
1010;SDS011;494;48.744;10.106;2023-05-10T07:40:06;10.77;;;4.87;;
1010;SDS011;494;48.744;10.106;2023-05-10T07:42:38;9.80;;;3.20;;
1010;SDS011;494;48.744;10.106;2023-05-10T07:45:07;11.43;;;2.70;;
1010;SDS011;494;48.744;10.106;2023-05-10T07:47:37;9.73;;;4.60;;
1010;SDS011;494;48.744;10.106;2023-05-10T07:50:07;9.57;;;5.33;;
1010;SDS011;494;48.744;10.106;2023-05-10T07:52:36;8.90;;;4.40;;
1010;SDS011;494;48.744;10.106;2023-05-10T07:55:05;10.50;;;4.90;;
1010;SDS011;494;48.744;10.106;2023-05-10T07:57:36;12.50;;;6.00;;
1010;SDS011;494;48.744;10.106;2023-05-10T08:00:08;12.70;;;9.20;;
1010;SDS011;494;48.744;10.106;2023-05-10T08:02:40;10.80;;;8.77;;
1010;SDS011;494;48.744;10.106;2023-05-10T08:05:09;11.73;;;8.93;;
1010;SDS011;494;48.744;10.106;2023-05-10T08:07:38;12.17;;;9.90;;
1010;SDS011;494;48.744;10.106;2023-05-10T08:10:08;13.33;;;9.57;;
1010;SDS011;494;48.744;10.106;2023-05-10T08:12:38;11.30;;;9.50;;
1010;SDS011;494;48.744;10.106;2023-05-10T08:15:09;11.60;;;9.87;;
1010;SDS011;494;48.744;10.106;2023-05-10T08:17:38;12.00;;;9.80;;
1010;SDS011;494;48.744;10.106;2023-05-10T08:20:07;11.03;;;9.77;;
1010;SDS011;494;48.744;10.106;2023-05-10T08:22:38;14.57;;;10.20;;
1010;SDS011;494;48.744;10.106;2023-05-10T08:25:07;13.27;;;10.20;;
1010;SDS011;494;48.744;10.106;2023-05-10T08:27:36;11.30;;;9.80;;
1010;SDS011;494;48.744;10.106;2023-05-10T08:30:05;11.70;;;8.47;;
1010;SDS011;494;48.744;10.106;2023-05-10T08:32:39;11.33;;;9.90;;
1010;SDS011;494;48.744;10.106;2023-05-10T08:35:08;12.83;;;9.67;;
1010;SDS011;494;48.744;10.106;2023-05-10T08:37:46;11.37;;;9.80;;
1010;SDS011;494;48.744;10.106;2023-05-10T08:40:15;11.30;;;9.50;;
1010;SDS011;494;48.744;10.106;2023-05-10T08:42:47;10.87;;;9.70;;
1010;SDS011;494;48.744;10.106;2023-05-10T08:45:24;9.30;;;6.70;;
1010;SDS011;494;48.744;10.106;2023-05-10T08:47:59;10.40;;;6.30;;
1010;SDS011;494;48.744;10.106;2023-05-10T08:50:29;11.07;;;6.53;;
1010;SDS011;494;48.744;10.106;2023-05-10T08:52:59;15.93;;;4.73;;
1010;SDS011;494;48.744;10.106;2023-05-10T08:55:32;8.90;;;4.60;;
1010;SDS011;494;48.744;10.106;2023-05-10T08:58:03;8.70;;;3.90;;
1010;SDS011;494;48.744;10.106;2023-05-10T09:00:34;10.90;;;4.50;;
1010;SDS011;494;48.744;10.106;2023-05-10T09:03:03;9.60;;;5.97;;
1010;SDS011;494;48.744;10.106;2023-05-10T09:05:33;8.57;;;4.30;;
1010;SDS011;494;48.744;10.106;2023-05-10T09:08:03;7.00;;;1.50;;
1010;SDS011;494;48.744;10.106;2023-05-10T09:10:34;8.17;;;1.53;;
1010;SDS011;494;48.744;10.106;2023-05-10T09:13:04;7.43;;;1.63;;
1010;SDS011;494;48.744;10.106;2023-05-10T09:15:35;8.30;;;1.67;;
1010;SDS011;494;48.744;10.106;2023-05-10T09:18:04;10.10;;;2.00;;
1010;SDS011;494;48.744;10.106;2023-05-10T09:20:33;8.30;;;3.40;;
1010;SDS011;494;48.744;10.106;2023-05-10T09:23:02;7.80;;;1.37;;
1010;SDS011;494;48.744;10.106;2023-05-10T09:25:31;7.57;;;1.03;;
1010;SDS011;494;48.744;10.106;2023-05-10T09:28:01;8.30;;;1.23;;
1010;SDS011;494;48.744;10.106;2023-05-10T09:30:33;7.30;;;1.30;;
1010;SDS011;494;48.744;10.106;2023-05-10T09:33:03;7.90;;;1.23;;
1010;SDS011;494;48.744;10.106;2023-05-10T09:35:32;8.63;;;1.40;;
1010;SDS011;494;48.744;10.106;2023-05-10T09:38:03;8.20;;;2.37;;
1010;SDS011;494;48.744;10.106;2023-05-10T09:40:32;7.27;;;1.23;;
1010;SDS011;494;48.744;10.106;2023-05-10T09:43:03;9.17;;;5.30;;
1010;SDS011;494;48.744;10.106;2023-05-10T09:45:36;8.50;;;4.70;;
1010;SDS011;494;48.744;10.106;2023-05-10T09:48:05;11.00;;;6.50;;
1010;SDS011;494;48.744;10.106;2023-05-10T09:50:34;10.83;;;7.23;;
1010;SDS011;494;48.744;10.106;2023-05-10T09:53:03;10.80;;;6.90;;
1010;SDS011;494;48.744;10.106;2023-05-10T09:55:38;9.20;;;5.57;;
1010;SDS011;494;48.744;10.106;2023-05-10T09:58:11;9.67;;;5.87;;
1010;SDS011;494;48.744;10.106;2023-05-10T10:00:43;9.23;;;5.43;;
1010;SDS011;494;48.744;10.106;2023-05-10T10:03:14;10.40;;;6.03;;
1010;SDS011;494;48.744;10.106;2023-05-10T10:05:49;11.70;;;5.30;;
1010;SDS011;494;48.744;10.106;2023-05-10T10:08:17;8.83;;;5.30;;
1010;SDS011;494;48.744;10.106;2023-05-10T10:10:46;10.30;;;5.57;;
1010;SDS011;494;48.744;10.106;2023-05-10T10:13:20;10.60;;;5.63;;
1010;SDS011;494;48.744;10.106;2023-05-10T10:19:42;8.70;;;4.93;;
1010;SDS011;494;48.744;10.106;2023-05-10T10:22:14;9.37;;;5.63;;
1010;SDS011;494;48.744;10.106;2023-05-10T10:24:44;9.10;;;5.30;;
1010;SDS011;494;48.744;10.106;2023-05-10T10:27:19;9.03;;;5.40;;
1010;SDS011;494;48.744;10.106;2023-05-10T10:29:58;13.77;;;3.57;;
1010;SDS011;494;48.744;10.106;2023-05-10T10:32:47;8.80;;;2.70;;
1010;SDS011;494;48.744;10.106;2023-05-10T10:35:54;9.70;;;2.00;;
1010;SDS011;494;48.744;10.106;2023-05-10T10:38:25;9.10;;;2.70;;
1010;SDS011;494;48.744;10.106;2023-05-10T10:41:08;7.70;;;2.00;;
1010;SDS011;494;48.744;10.106;2023-05-10T10:43:38;7.87;;;2.53;;
1010;SDS011;494;48.744;10.106;2023-05-10T10:46:11;7.60;;;1.77;;
1010;SDS011;494;48.744;10.106;2023-05-10T10:48:48;8.20;;;2.00;;
1010;SDS011;494;48.744;10.106;2023-05-10T10:51:36;9.17;;;2.20;;
1010;SDS011;494;48.744;10.106;2023-05-10T10:54:08;7.27;;;2.40;;
1010;SDS011;494;48.744;10.106;2023-05-10T10:56:38;8.40;;;4.63;;
1010;SDS011;494;48.744;10.106;2023-05-10T10:59:07;11.97;;;4.70;;
1010;SDS011;494;48.744;10.106;2023-05-10T11:01:36;9.30;;;4.57;;
1010;SDS011;494;48.744;10.106;2023-05-10T11:04:18;9.80;;;4.93;;
1010;SDS011;494;48.744;10.106;2023-05-10T11:06:47;9.33;;;4.63;;
1010;SDS011;494;48.744;10.106;2023-05-10T11:09:16;9.27;;;4.70;;
1010;SDS011;494;48.744;10.106;2023-05-10T11:11:48;9.20;;;5.33;;
1010;SDS011;494;48.744;10.106;2023-05-10T11:14:22;9.47;;;5.30;;
1010;SDS011;494;48.744;10.106;2023-05-10T11:17:24;14.17;;;6.80;;
1010;SDS011;494;48.744;10.106;2023-05-10T11:20:09;13.10;;;6.40;;
1010;SDS011;494;48.744;10.106;2023-05-10T11:22:49;11.00;;;6.47;;
1010;SDS011;494;48.744;10.106;2023-05-10T11:25:41;12.50;;;5.70;;
1010;SDS011;494;48.744;10.106;2023-05-10T11:28:32;11.23;;;6.27;;
1010;SDS011;494;48.744;10.106;2023-05-10T11:31:01;13.80;;;6.23;;
1010;SDS011;494;48.744;10.106;2023-05-10T11:33:43;11.83;;;5.30;;
1010;SDS011;494;48.744;10.106;2023-05-10T11:36:15;19.60;;;6.23;;
1010;SDS011;494;48.744;10.106;2023-05-10T11:38:45;9.50;;;5.70;;
1010;SDS011;494;48.744;10.106;2023-05-10T11:41:16;11.20;;;5.13;;
1010;SDS011;494;48.744;10.106;2023-05-10T11:43:51;10.93;;;5.40;;
1010;SDS011;494;48.744;10.106;2023-05-10T11:46:22;9.70;;;4.87;;
1010;SDS011;494;48.744;10.106;2023-05-10T11:48:54;9.80;;;5.00;;
1010;SDS011;494;48.744;10.106;2023-05-10T11:51:32;9.73;;;5.13;;
1010;SDS011;494;48.744;10.106;2023-05-10T11:54:05;14.77;;;5.73;;
1010;SDS011;494;48.744;10.106;2023-05-10T11:56:40;10.37;;;5.90;;
1010;SDS011;494;48.744;10.106;2023-05-10T11:59:26;9.40;;;5.40;;
1010;SDS011;494;48.744;10.106;2023-05-10T12:01:54;16.03;;;6.60;;
1010;SDS011;494;48.744;10.106;2023-05-10T12:04:23;9.47;;;5.40;;
1010;SDS011;494;48.744;10.106;2023-05-10T12:06:57;10.23;;;5.47;;
1010;SDS011;494;48.744;10.106;2023-05-10T12:09:26;11.30;;;5.77;;
1010;SDS011;494;48.744;10.106;2023-05-10T12:12:10;9.00;;;5.60;;
1010;SDS011;494;48.744;10.106;2023-05-10T12:14:47;10.53;;;5.93;;
1010;SDS011;494;48.744;10.106;2023-05-10T12:17:18;10.70;;;5.83;;
1010;SDS011;494;48.744;10.106;2023-05-10T12:19:46;10.20;;;5.60;;
1010;SDS011;494;48.744;10.106;2023-05-10T12:22:19;8.70;;;5.20;;
1010;SDS011;494;48.744;10.106;2023-05-10T12:24:49;9.47;;;5.60;;
1010;SDS011;494;48.744;10.106;2023-05-10T12:27:18;9.20;;;5.53;;
1010;SDS011;494;48.744;10.106;2023-05-10T12:29:47;8.47;;;5.00;;
1010;SDS011;494;48.744;10.106;2023-05-10T12:32:17;15.00;;;5.77;;
1010;SDS011;494;48.744;10.106;2023-05-10T12:34:46;10.03;;;5.60;;
1010;SDS011;494;48.744;10.106;2023-05-10T12:37:15;8.60;;;5.63;;
1010;SDS011;494;48.744;10.106;2023-05-10T12:39:51;11.23;;;5.77;;
1010;SDS011;494;48.744;10.106;2023-05-10T12:42:20;9.93;;;5.40;;
1010;SDS011;494;48.744;10.106;2023-05-10T12:44:50;9.97;;;6.00;;
1010;SDS011;494;48.744;10.106;2023-05-10T12:47:23;11.30;;;6.67;;
1010;SDS011;494;48.744;10.106;2023-05-10T12:50:00;10.60;;;5.50;;
1010;SDS011;494;48.744;10.106;2023-05-10T12:52:31;10.03;;;5.40;;
1010;SDS011;494;48.744;10.106;2023-05-10T12:55:00;8.57;;;4.50;;
1010;SDS011;494;48.744;10.106;2023-05-10T12:57:29;8.83;;;5.13;;
1010;SDS011;494;48.744;10.106;2023-05-10T12:59:58;8.90;;;5.23;;
1010;SDS011;494;48.744;10.106;2023-05-10T13:02:27;11.10;;;6.00;;
1010;SDS011;494;48.744;10.106;2023-05-10T13:04:55;9.80;;;5.47;;
1010;SDS011;494;48.744;10.106;2023-05-10T13:07:24;8.90;;;5.07;;
1010;SDS011;494;48.744;10.106;2023-05-10T13:09:55;10.70;;;4.83;;
1010;SDS011;494;48.744;10.106;2023-05-10T13:12:23;9.70;;;4.93;;
1010;SDS011;494;48.744;10.106;2023-05-10T13:14:52;11.10;;;5.93;;
1010;SDS011;494;48.744;10.106;2023-05-10T13:17:21;10.37;;;5.13;;
1010;SDS011;494;48.744;10.106;2023-05-10T13:19:50;10.83;;;4.70;;
1010;SDS011;494;48.744;10.106;2023-05-10T13:22:18;9.70;;;5.27;;
1010;SDS011;494;48.744;10.106;2023-05-10T13:25:06;11.07;;;5.20;;
1010;SDS011;494;48.744;10.106;2023-05-10T13:27:36;9.80;;;5.17;;
1010;SDS011;494;48.744;10.106;2023-05-10T13:30:05;8.80;;;3.10;;
1010;SDS011;494;48.744;10.106;2023-05-10T13:32:35;9.77;;;2.60;;
1010;SDS011;494;48.744;10.106;2023-05-10T13:35:05;8.50;;;4.30;;
1010;SDS011;494;48.744;10.106;2023-05-10T13:37:35;9.40;;;2.80;;
1010;SDS011;494;48.744;10.106;2023-05-10T13:40:07;10.90;;;4.77;;
1010;SDS011;494;48.744;10.106;2023-05-10T13:42:40;8.90;;;6.87;;
1010;SDS011;494;48.744;10.106;2023-05-10T13:45:10;9.90;;;4.63;;
1010;SDS011;494;48.744;10.106;2023-05-10T13:47:39;9.10;;;5.97;;
1010;SDS011;494;48.744;10.106;2023-05-10T13:50:08;9.57;;;5.77;;
1010;SDS011;494;48.744;10.106;2023-05-10T13:52:37;16.67;;;5.30;;
1010;SDS011;494;48.744;10.106;2023-05-10T13:55:08;8.70;;;4.43;;
1010;SDS011;494;48.744;10.106;2023-05-10T13:57:39;8.73;;;3.90;;
1010;SDS011;494;48.744;10.106;2023-05-10T14:00:09;9.67;;;4.97;;
1010;SDS011;494;48.744;10.106;2023-05-10T14:02:39;9.90;;;5.77;;
1010;SDS011;494;48.744;10.106;2023-05-10T14:05:08;8.80;;;4.57;;
1010;SDS011;494;48.744;10.106;2023-05-10T14:07:47;9.83;;;3.30;;
1010;SDS011;494;48.744;10.106;2023-05-10T14:10:28;8.07;;;2.87;;
1010;SDS011;494;48.744;10.106;2023-05-10T14:12:57;8.10;;;3.93;;
1010;SDS011;494;48.744;10.106;2023-05-10T14:15:26;8.80;;;5.30;;
1010;SDS011;494;48.744;10.106;2023-05-10T14:17:56;9.30;;;3.63;;
1010;SDS011;494;48.744;10.106;2023-05-10T14:20:25;10.30;;;5.53;;
1010;SDS011;494;48.744;10.106;2023-05-10T14:22:58;8.83;;;3.70;;
1010;SDS011;494;48.744;10.106;2023-05-10T14:25:28;11.13;;;7.20;;
1010;SDS011;494;48.744;10.106;2023-05-10T14:27:57;11.10;;;7.30;;
1010;SDS011;494;48.744;10.106;2023-05-10T14:30:26;9.93;;;6.57;;
1010;SDS011;494;48.744;10.106;2023-05-10T14:32:56;9.60;;;6.17;;
1010;SDS011;494;48.744;10.106;2023-05-10T14:35:25;10.57;;;6.80;;
1010;SDS011;494;48.744;10.106;2023-05-10T14:38:06;10.60;;;6.60;;
1010;SDS011;494;48.744;10.106;2023-05-10T14:40:43;11.23;;;7.23;;
1010;SDS011;494;48.744;10.106;2023-05-10T14:43:14;10.37;;;6.37;;
1010;SDS011;494;48.744;10.106;2023-05-10T14:46:07;10.70;;;6.17;;
1010;SDS011;494;48.744;10.106;2023-05-10T14:48:47;9.63;;;4.93;;
1010;SDS011;494;48.744;10.106;2023-05-10T14:51:18;10.50;;;5.90;;
1010;SDS011;494;48.744;10.106;2023-05-10T14:54:03;14.40;;;6.33;;
1010;SDS011;494;48.744;10.106;2023-05-10T14:56:37;11.37;;;6.60;;
1010;SDS011;494;48.744;10.106;2023-05-10T14:59:10;9.63;;;6.57;;
1010;SDS011;494;48.744;10.106;2023-05-10T15:01:48;11.97;;;6.77;;
1010;SDS011;494;48.744;10.106;2023-05-10T15:04:17;12.03;;;7.00;;
1010;SDS011;494;48.744;10.106;2023-05-10T15:06:46;10.90;;;6.80;;
1010;SDS011;494;48.744;10.106;2023-05-10T15:09:15;10.20;;;7.00;;
1010;SDS011;494;48.744;10.106;2023-05-10T15:11:45;10.83;;;7.23;;
1010;SDS011;494;48.744;10.106;2023-05-10T15:14:14;11.73;;;7.00;;
1010;SDS011;494;48.744;10.106;2023-05-10T15:16:43;10.60;;;6.60;;
1010;SDS011;494;48.744;10.106;2023-05-10T15:19:11;11.47;;;6.60;;
1010;SDS011;494;48.744;10.106;2023-05-10T15:21:40;11.20;;;6.40;;
1010;SDS011;494;48.744;10.106;2023-05-10T15:24:11;11.50;;;6.97;;
1010;SDS011;494;48.744;10.106;2023-05-10T15:26:40;11.43;;;7.70;;
1010;SDS011;494;48.744;10.106;2023-05-10T15:29:09;11.33;;;7.43;;
1010;SDS011;494;48.744;10.106;2023-05-10T15:31:38;12.93;;;7.27;;
1010;SDS011;494;48.744;10.106;2023-05-10T15:34:07;10.63;;;7.27;;
1010;SDS011;494;48.744;10.106;2023-05-10T15:36:52;10.57;;;7.60;;
1010;SDS011;494;48.744;10.106;2023-05-10T15:40:08;11.53;;;7.10;;